sensor_id;sensor_type;location;lat;lon;timestamp;P1;durP1;ratioP1;P2;durP2;ratioP2
7831;SDS011;3961;42.058;25.586;2024-03-08T00:01:05;37.57;;;22.07;;
7831;SDS011;3961;42.058;25.586;2024-03-08T00:03:32;35.03;;;23.07;;
7831;SDS011;3961;42.058;25.586;2024-03-08T00:05:57;41.57;;;23.67;;
7831;SDS011;3961;42.058;25.586;2024-03-08T00:08:23;41.33;;;23.77;;
7831;SDS011;3961;42.058;25.586;2024-03-08T00:10:49;43.40;;;25.00;;
7831;SDS011;3961;42.058;25.586;2024-03-08T00:13:14;42.10;;;25.57;;
7831;SDS011;3961;42.058;25.586;2024-03-08T00:15:40;43.30;;;25.73;;
7831;SDS011;3961;42.058;25.586;2024-03-08T00:18:06;40.90;;;24.07;;
7831;SDS011;3961;42.058;25.586;2024-03-08T00:20:32;41.63;;;24.93;;
7831;SDS011;3961;42.058;25.586;2024-03-08T00:22:58;43.17;;;24.80;;
7831;SDS011;3961;42.058;25.586;2024-03-08T00:25:24;43.67;;;25.23;;
7831;SDS011;3961;42.058;25.586;2024-03-08T00:27:49;43.97;;;25.27;;
7831;SDS011;3961;42.058;25.586;2024-03-08T00:30:14;40.20;;;25.10;;
7831;SDS011;3961;42.058;25.586;2024-03-08T00:32:40;43.17;;;23.93;;
7831;SDS011;3961;42.058;25.586;2024-03-08T00:35:06;45.03;;;26.47;;
7831;SDS011;3961;42.058;25.586;2024-03-08T00:37:32;38.97;;;24.87;;
7831;SDS011;3961;42.058;25.586;2024-03-08T00:39:59;39.23;;;24.43;;
7831;SDS011;3961;42.058;25.586;2024-03-08T00:42:24;39.43;;;23.77;;
7831;SDS011;3961;42.058;25.586;2024-03-08T00:44:50;46.57;;;23.70;;
7831;SDS011;3961;42.058;25.586;2024-03-08T00:47:16;40.67;;;24.90;;
7831;SDS011;3961;42.058;25.586;2024-03-08T00:49:41;42.40;;;25.33;;
7831;SDS011;3961;42.058;25.586;2024-03-08T00:52:07;41.63;;;23.80;;
7831;SDS011;3961;42.058;25.586;2024-03-08T00:54:33;39.23;;;23.97;;
7831;SDS011;3961;42.058;25.586;2024-03-08T00:57:01;41.53;;;23.50;;
7831;SDS011;3961;42.058;25.586;2024-03-08T00:59:28;39.30;;;24.17;;
7831;SDS011;3961;42.058;25.586;2024-03-08T01:01:54;41.43;;;24.23;;
7831;SDS011;3961;42.058;25.586;2024-03-08T01:04:19;40.07;;;22.73;;
7831;SDS011;3961;42.058;25.586;2024-03-08T01:06:46;43.60;;;25.03;;
7831;SDS011;3961;42.058;25.586;2024-03-08T01:09:12;39.97;;;22.90;;
7831;SDS011;3961;42.058;25.586;2024-03-08T01:11:38;39.13;;;24.00;;
7831;SDS011;3961;42.058;25.586;2024-03-08T01:14:04;48.17;;;24.10;;
7831;SDS011;3961;42.058;25.586;2024-03-08T01:16:29;38.93;;;24.30;;
7831;SDS011;3961;42.058;25.586;2024-03-08T01:18:55;37.37;;;23.70;;
7831;SDS011;3961;42.058;25.586;2024-03-08T01:21:20;43.90;;;23.73;;
7831;SDS011;3961;42.058;25.586;2024-03-08T01:23:45;37.50;;;24.20;;
7831;SDS011;3961;42.058;25.586;2024-03-08T01:26:11;42.30;;;25.17;;
7831;SDS011;3961;42.058;25.586;2024-03-08T01:28:36;40.10;;;24.83;;
7831;SDS011;3961;42.058;25.586;2024-03-08T01:31:02;36.43;;;23.77;;
7831;SDS011;3961;42.058;25.586;2024-03-08T01:33:28;38.70;;;24.10;;
7831;SDS011;3961;42.058;25.586;2024-03-08T01:35:54;42.17;;;25.83;;
7831;SDS011;3961;42.058;25.586;2024-03-08T01:38:20;41.70;;;25.53;;
7831;SDS011;3961;42.058;25.586;2024-03-08T01:40:46;37.27;;;23.57;;
7831;SDS011;3961;42.058;25.586;2024-03-08T01:43:21;38.57;;;24.67;;
7831;SDS011;3961;42.058;25.586;2024-03-08T01:45:50;40.43;;;25.60;;
7831;SDS011;3961;42.058;25.586;2024-03-08T01:48:16;41.20;;;24.87;;
7831;SDS011;3961;42.058;25.586;2024-03-08T01:50:43;39.20;;;25.10;;
7831;SDS011;3961;42.058;25.586;2024-03-08T01:53:09;39.60;;;25.10;;
7831;SDS011;3961;42.058;25.586;2024-03-08T01:55:36;41.43;;;25.30;;
7831;SDS011;3961;42.058;25.586;2024-03-08T01:58:04;40.70;;;25.00;;
7831;SDS011;3961;42.058;25.586;2024-03-08T02:00:30;38.13;;;24.77;;
7831;SDS011;3961;42.058;25.586;2024-03-08T02:03:00;43.27;;;25.70;;
7831;SDS011;3961;42.058;25.586;2024-03-08T02:05:27;39.57;;;23.90;;
7831;SDS011;3961;42.058;25.586;2024-03-08T02:07:53;45.07;;;25.10;;
7831;SDS011;3961;42.058;25.586;2024-03-08T02:10:19;41.67;;;24.97;;
7831;SDS011;3961;42.058;25.586;2024-03-08T02:12:45;39.57;;;24.27;;
7831;SDS011;3961;42.058;25.586;2024-03-08T02:15:11;40.70;;;24.77;;
7831;SDS011;3961;42.058;25.586;2024-03-08T02:17:37;46.67;;;24.93;;
7831;SDS011;3961;42.058;25.586;2024-03-08T02:20:02;44.27;;;25.67;;
7831;SDS011;3961;42.058;25.586;2024-03-08T02:22:30;47.57;;;26.97;;
7831;SDS011;3961;42.058;25.586;2024-03-08T02:24:58;42.20;;;25.80;;
7831;SDS011;3961;42.058;25.586;2024-03-08T02:27:26;39.70;;;24.60;;
7831;SDS011;3961;42.058;25.586;2024-03-08T02:29:56;43.37;;;26.03;;
7831;SDS011;3961;42.058;25.586;2024-03-08T02:32:22;45.07;;;25.83;;
7831;SDS011;3961;42.058;25.586;2024-03-08T02:34:48;50.20;;;26.90;;
7831;SDS011;3961;42.058;25.586;2024-03-08T02:37:15;46.27;;;26.90;;
7831;SDS011;3961;42.058;25.586;2024-03-08T02:39:40;47.37;;;26.93;;
7831;SDS011;3961;42.058;25.586;2024-03-08T02:42:06;42.43;;;26.33;;
7831;SDS011;3961;42.058;25.586;2024-03-08T02:44:32;49.07;;;26.50;;
7831;SDS011;3961;42.058;25.586;2024-03-08T02:46:59;46.57;;;27.03;;
7831;SDS011;3961;42.058;25.586;2024-03-08T02:49:25;46.70;;;27.83;;
7831;SDS011;3961;42.058;25.586;2024-03-08T02:51:53;45.90;;;27.60;;
7831;SDS011;3961;42.058;25.586;2024-03-08T02:54:19;48.57;;;25.67;;
7831;SDS011;3961;42.058;25.586;2024-03-08T02:56:46;46.13;;;26.97;;
7831;SDS011;3961;42.058;25.586;2024-03-08T02:59:12;46.53;;;26.50;;
7831;SDS011;3961;42.058;25.586;2024-03-08T03:01:38;49.50;;;28.60;;
7831;SDS011;3961;42.058;25.586;2024-03-08T03:04:04;50.17;;;28.17;;
7831;SDS011;3961;42.058;25.586;2024-03-08T03:06:30;43.73;;;26.43;;
7831;SDS011;3961;42.058;25.586;2024-03-08T03:08:56;46.83;;;26.40;;
7831;SDS011;3961;42.058;25.586;2024-03-08T03:11:22;46.47;;;26.87;;
7831;SDS011;3961;42.058;25.586;2024-03-08T03:13:48;53.97;;;28.53;;
7831;SDS011;3961;42.058;25.586;2024-03-08T03:16:17;49.63;;;26.80;;
7831;SDS011;3961;42.058;25.586;2024-03-08T03:18:45;43.40;;;25.57;;
7831;SDS011;3961;42.058;25.586;2024-03-08T03:21:11;47.20;;;25.90;;
7831;SDS011;3961;42.058;25.586;2024-03-08T03:23:38;40.40;;;25.83;;
7831;SDS011;3961;42.058;25.586;2024-03-08T03:26:05;45.10;;;25.77;;
7831;SDS011;3961;42.058;25.586;2024-03-08T03:28:32;49.23;;;25.97;;
7831;SDS011;3961;42.058;25.586;2024-03-08T03:30:58;45.80;;;26.27;;
7831;SDS011;3961;42.058;25.586;2024-03-08T03:33:24;51.53;;;25.93;;
7831;SDS011;3961;42.058;25.586;2024-03-08T03:35:50;43.03;;;25.17;;
7831;SDS011;3961;42.058;25.586;2024-03-08T03:38:17;50.23;;;25.80;;
7831;SDS011;3961;42.058;25.586;2024-03-08T03:40:42;46.07;;;25.97;;
7831;SDS011;3961;42.058;25.586;2024-03-08T03:43:10;44.23;;;25.30;;
7831;SDS011;3961;42.058;25.586;2024-03-08T03:45:36;41.27;;;24.43;;
7831;SDS011;3961;42.058;25.586;2024-03-08T03:48:04;43.77;;;25.70;;
7831;SDS011;3961;42.058;25.586;2024-03-08T03:50:34;45.90;;;26.43;;
7831;SDS011;3961;42.058;25.586;2024-03-08T03:53:00;43.30;;;25.07;;
7831;SDS011;3961;42.058;25.586;2024-03-08T03:55:27;40.77;;;24.93;;
7831;SDS011;3961;42.058;25.586;2024-03-08T03:57:53;45.43;;;24.97;;
7831;SDS011;3961;42.058;25.586;2024-03-08T04:00:19;45.17;;;26.10;;
7831;SDS011;3961;42.058;25.586;2024-03-08T04:02:45;45.57;;;26.03;;
7831;SDS011;3961;42.058;25.586;2024-03-08T04:05:11;46.43;;;25.83;;
7831;SDS011;3961;42.058;25.586;2024-03-08T04:07:37;50.80;;;26.90;;
7831;SDS011;3961;42.058;25.586;2024-03-08T04:10:04;48.77;;;27.20;;
7831;SDS011;3961;42.058;25.586;2024-03-08T04:12:35;45.63;;;26.27;;
7831;SDS011;3961;42.058;25.586;2024-03-08T04:15:01;46.30;;;25.60;;
7831;SDS011;3961;42.058;25.586;2024-03-08T04:17:26;45.47;;;25.60;;
7831;SDS011;3961;42.058;25.586;2024-03-08T04:19:52;49.00;;;27.00;;
7831;SDS011;3961;42.058;25.586;2024-03-08T04:22:18;49.47;;;26.53;;
7831;SDS011;3961;42.058;25.586;2024-03-08T04:24:44;44.73;;;27.07;;
7831;SDS011;3961;42.058;25.586;2024-03-08T04:27:11;44.73;;;25.10;;
7831;SDS011;3961;42.058;25.586;2024-03-08T04:29:36;47.50;;;27.17;;
7831;SDS011;3961;42.058;25.586;2024-03-08T04:32:04;42.63;;;25.70;;
7831;SDS011;3961;42.058;25.586;2024-03-08T04:34:31;47.90;;;27.77;;
7831;SDS011;3961;42.058;25.586;2024-03-08T04:36:57;48.07;;;26.17;;
7831;SDS011;3961;42.058;25.586;2024-03-08T04:39:23;44.27;;;26.03;;
7831;SDS011;3961;42.058;25.586;2024-03-08T04:41:49;44.80;;;24.40;;
7831;SDS011;3961;42.058;25.586;2024-03-08T04:44:15;45.47;;;26.17;;
7831;SDS011;3961;42.058;25.586;2024-03-08T04:46:42;39.83;;;25.27;;
7831;SDS011;3961;42.058;25.586;2024-03-08T04:49:09;44.57;;;25.57;;
7831;SDS011;3961;42.058;25.586;2024-03-08T04:51:37;41.43;;;24.77;;
7831;SDS011;3961;42.058;25.586;2024-03-08T04:54:02;43.40;;;23.67;;
7831;SDS011;3961;42.058;25.586;2024-03-08T04:56:29;46.73;;;26.03;;
7831;SDS011;3961;42.058;25.586;2024-03-08T04:58:55;43.27;;;25.50;;
7831;SDS011;3961;42.058;25.586;2024-03-08T05:01:20;41.30;;;24.67;;
7831;SDS011;3961;42.058;25.586;2024-03-08T05:03:46;46.83;;;25.10;;
7831;SDS011;3961;42.058;25.586;2024-03-08T05:06:15;41.40;;;24.93;;
7831;SDS011;3961;42.058;25.586;2024-03-08T05:08:41;39.00;;;24.53;;
7831;SDS011;3961;42.058;25.586;2024-03-08T05:11:06;40.97;;;24.00;;
7831;SDS011;3961;42.058;25.586;2024-03-08T05:13:32;42.07;;;24.80;;
7831;SDS011;3961;42.058;25.586;2024-03-08T05:15:59;42.43;;;23.23;;
7831;SDS011;3961;42.058;25.586;2024-03-08T05:18:25;38.27;;;23.37;;
7831;SDS011;3961;42.058;25.586;2024-03-08T05:20:50;45.87;;;25.97;;
7831;SDS011;3961;42.058;25.586;2024-03-08T05:23:16;40.00;;;24.57;;
7831;SDS011;3961;42.058;25.586;2024-03-08T05:25:44;41.87;;;24.17;;
7831;SDS011;3961;42.058;25.586;2024-03-08T05:28:12;42.17;;;24.83;;
7831;SDS011;3961;42.058;25.586;2024-03-08T05:30:38;38.63;;;24.50;;
7831;SDS011;3961;42.058;25.586;2024-03-08T05:33:03;41.30;;;23.27;;
7831;SDS011;3961;42.058;25.586;2024-03-08T05:35:29;37.03;;;23.30;;
7831;SDS011;3961;42.058;25.586;2024-03-08T05:37:54;41.83;;;23.03;;
7831;SDS011;3961;42.058;25.586;2024-03-08T05:40:20;34.40;;;22.30;;
7831;SDS011;3961;42.058;25.586;2024-03-08T05:42:45;36.63;;;22.27;;
7831;SDS011;3961;42.058;25.586;2024-03-08T05:45:11;39.00;;;22.67;;
7831;SDS011;3961;42.058;25.586;2024-03-08T05:47:38;31.37;;;20.67;;
7831;SDS011;3961;42.058;25.586;2024-03-08T05:50:04;34.37;;;21.10;;
7831;SDS011;3961;42.058;25.586;2024-03-08T05:52:32;36.57;;;21.60;;
7831;SDS011;3961;42.058;25.586;2024-03-08T05:54:58;35.13;;;20.93;;
7831;SDS011;3961;42.058;25.586;2024-03-08T05:57:23;37.13;;;20.60;;
7831;SDS011;3961;42.058;25.586;2024-03-08T05:59:49;34.13;;;21.17;;
7831;SDS011;3961;42.058;25.586;2024-03-08T06:02:14;34.50;;;20.77;;
7831;SDS011;3961;42.058;25.586;2024-03-08T06:04:45;34.03;;;20.43;;
7831;SDS011;3961;42.058;25.586;2024-03-08T06:07:14;30.30;;;20.63;;
7831;SDS011;3961;42.058;25.586;2024-03-08T06:09:40;33.80;;;20.37;;
7831;SDS011;3961;42.058;25.586;2024-03-08T06:12:06;31.73;;;20.37;;
7831;SDS011;3961;42.058;25.586;2024-03-08T06:14:31;31.77;;;19.57;;
7831;SDS011;3961;42.058;25.586;2024-03-08T06:16:57;31.77;;;20.90;;
7831;SDS011;3961;42.058;25.586;2024-03-08T06:19:23;31.23;;;19.77;;
7831;SDS011;3961;42.058;25.586;2024-03-08T06:21:48;32.43;;;18.70;;
7831;SDS011;3961;42.058;25.586;2024-03-08T06:24:14;29.50;;;19.20;;
7831;SDS011;3961;42.058;25.586;2024-03-08T06:26:40;27.80;;;18.67;;
7831;SDS011;3961;42.058;25.586;2024-03-08T06:29:06;26.90;;;18.47;;
7831;SDS011;3961;42.058;25.586;2024-03-08T06:31:31;28.13;;;17.60;;
7831;SDS011;3961;42.058;25.586;2024-03-08T06:33:57;36.70;;;19.23;;
7831;SDS011;3961;42.058;25.586;2024-03-08T06:36:23;29.63;;;19.13;;
7831;SDS011;3961;42.058;25.586;2024-03-08T06:38:49;34.13;;;19.03;;
7831;SDS011;3961;42.058;25.586;2024-03-08T06:41:14;28.33;;;18.07;;
7831;SDS011;3961;42.058;25.586;2024-03-08T06:43:47;30.53;;;19.27;;
7831;SDS011;3961;42.058;25.586;2024-03-08T06:46:16;28.17;;;17.70;;
7831;SDS011;3961;42.058;25.586;2024-03-08T06:48:42;31.20;;;17.77;;
7831;SDS011;3961;42.058;25.586;2024-03-08T06:51:08;29.03;;;17.23;;
7831;SDS011;3961;42.058;25.586;2024-03-08T06:53:36;26.27;;;16.67;;
7831;SDS011;3961;42.058;25.586;2024-03-08T06:56:02;28.00;;;17.87;;
7831;SDS011;3961;42.058;25.586;2024-03-08T06:58:28;28.17;;;16.77;;
7831;SDS011;3961;42.058;25.586;2024-03-08T07:00:53;30.10;;;17.03;;
7831;SDS011;3961;42.058;25.586;2024-03-08T07:03:23;28.67;;;16.87;;
7831;SDS011;3961;42.058;25.586;2024-03-08T07:05:49;27.77;;;16.73;;
7831;SDS011;3961;42.058;25.586;2024-03-08T07:08:15;25.43;;;16.20;;
7831;SDS011;3961;42.058;25.586;2024-03-08T07:10:41;24.80;;;17.17;;
7831;SDS011;3961;42.058;25.586;2024-03-08T07:13:07;25.57;;;16.03;;
7831;SDS011;3961;42.058;25.586;2024-03-08T07:15:33;27.47;;;15.83;;
7831;SDS011;3961;42.058;25.586;2024-03-08T07:18:00;29.13;;;16.47;;
7831;SDS011;3961;42.058;25.586;2024-03-08T07:20:26;30.90;;;18.17;;
7831;SDS011;3961;42.058;25.586;2024-03-08T07:22:51;25.80;;;16.13;;
7831;SDS011;3961;42.058;25.586;2024-03-08T07:25:17;28.10;;;17.03;;
7831;SDS011;3961;42.058;25.586;2024-03-08T07:27:49;22.70;;;15.63;;
7831;SDS011;3961;42.058;25.586;2024-03-08T07:30:19;29.20;;;17.03;;
7831;SDS011;3961;42.058;25.586;2024-03-08T07:33:15;27.33;;;17.83;;
7831;SDS011;3961;42.058;25.586;2024-03-08T07:35:40;27.63;;;16.43;;
7831;SDS011;3961;42.058;25.586;2024-03-08T07:38:07;27.87;;;16.93;;
7831;SDS011;3961;42.058;25.586;2024-03-08T07:40:38;24.53;;;16.20;;
7831;SDS011;3961;42.058;25.586;2024-03-08T07:43:08;26.20;;;16.33;;
7831;SDS011;3961;42.058;25.586;2024-03-08T07:45:33;27.47;;;15.23;;
7831;SDS011;3961;42.058;25.586;2024-03-08T07:47:59;37.23;;;26.17;;
7831;SDS011;3961;42.058;25.586;2024-03-08T07:50:25;22.40;;;14.77;;
7831;SDS011;3961;42.058;25.586;2024-03-08T07:52:50;29.20;;;14.37;;
7831;SDS011;3961;42.058;25.586;2024-03-08T07:55:16;21.23;;;14.73;;
7831;SDS011;3961;42.058;25.586;2024-03-08T07:57:41;25.43;;;15.10;;
7831;SDS011;3961;42.058;25.586;2024-03-08T08:00:08;20.97;;;14.37;;
7831;SDS011;3961;42.058;25.586;2024-03-08T08:02:36;19.40;;;13.93;;
7831;SDS011;3961;42.058;25.586;2024-03-08T08:05:02;27.57;;;15.47;;
7831;SDS011;3961;42.058;25.586;2024-03-08T08:07:28;32.17;;;18.63;;
7831;SDS011;3961;42.058;25.586;2024-03-08T08:09:54;25.83;;;14.17;;
7831;SDS011;3961;42.058;25.586;2024-03-08T08:12:19;24.00;;;15.13;;
7831;SDS011;3961;42.058;25.586;2024-03-08T08:14:46;21.70;;;14.77;;
7831;SDS011;3961;42.058;25.586;2024-03-08T08:17:11;30.03;;;19.40;;
7831;SDS011;3961;42.058;25.586;2024-03-08T08:19:37;26.43;;;14.63;;
7831;SDS011;3961;42.058;25.586;2024-03-08T08:22:03;19.57;;;13.53;;
7831;SDS011;3961;42.058;25.586;2024-03-08T08:24:29;23.00;;;13.23;;
7831;SDS011;3961;42.058;25.586;2024-03-08T08:26:55;21.20;;;13.03;;
7831;SDS011;3961;42.058;25.586;2024-03-08T08:29:20;23.90;;;13.77;;
7831;SDS011;3961;42.058;25.586;2024-03-08T08:31:47;20.03;;;13.40;;
7831;SDS011;3961;42.058;25.586;2024-03-08T08:34:12;21.73;;;14.00;;
7831;SDS011;3961;42.058;25.586;2024-03-08T08:36:38;20.43;;;12.20;;
7831;SDS011;3961;42.058;25.586;2024-03-08T08:39:04;25.47;;;16.27;;
7831;SDS011;3961;42.058;25.586;2024-03-08T08:41:30;33.23;;;20.07;;
7831;SDS011;3961;42.058;25.586;2024-03-08T08:43:56;21.77;;;13.07;;
7831;SDS011;3961;42.058;25.586;2024-03-08T08:46:22;18.73;;;11.70;;
7831;SDS011;3961;42.058;25.586;2024-03-08T08:48:47;19.27;;;12.40;;
7831;SDS011;3961;42.058;25.586;2024-03-08T08:51:13;20.40;;;12.00;;
7831;SDS011;3961;42.058;25.586;2024-03-08T08:53:39;20.17;;;12.57;;
7831;SDS011;3961;42.058;25.586;2024-03-08T08:56:11;16.90;;;11.93;;
7831;SDS011;3961;42.058;25.586;2024-03-08T08:58:40;18.67;;;12.53;;
7831;SDS011;3961;42.058;25.586;2024-03-08T09:01:07;21.57;;;14.37;;
7831;SDS011;3961;42.058;25.586;2024-03-08T09:03:35;21.60;;;12.83;;
7831;SDS011;3961;42.058;25.586;2024-03-08T09:06:02;17.80;;;12.40;;
7831;SDS011;3961;42.058;25.586;2024-03-08T09:08:29;17.47;;;11.57;;
7831;SDS011;3961;42.058;25.586;2024-03-08T09:10:54;18.20;;;11.67;;
7831;SDS011;3961;42.058;25.586;2024-03-08T09:13:19;14.80;;;10.77;;
7831;SDS011;3961;42.058;25.586;2024-03-08T09:15:45;15.83;;;10.60;;
7831;SDS011;3961;42.058;25.586;2024-03-08T09:18:11;16.17;;;11.20;;
7831;SDS011;3961;42.058;25.586;2024-03-08T09:20:36;16.43;;;10.00;;
7831;SDS011;3961;42.058;25.586;2024-03-08T09:23:02;15.33;;;10.20;;
7831;SDS011;3961;42.058;25.586;2024-03-08T09:25:29;15.07;;;10.73;;
7831;SDS011;3961;42.058;25.586;2024-03-08T09:27:54;13.57;;;9.90;;
7831;SDS011;3961;42.058;25.586;2024-03-08T09:30:20;16.47;;;10.60;;
7831;SDS011;3961;42.058;25.586;2024-03-08T09:32:46;14.57;;;10.23;;
7831;SDS011;3961;42.058;25.586;2024-03-08T09:35:12;17.80;;;10.13;;
7831;SDS011;3961;42.058;25.586;2024-03-08T09:37:38;14.53;;;9.70;;
7831;SDS011;3961;42.058;25.586;2024-03-08T09:40:03;14.87;;;10.10;;
7831;SDS011;3961;42.058;25.586;2024-03-08T09:42:34;15.23;;;9.63;;
7831;SDS011;3961;42.058;25.586;2024-03-08T09:45:04;15.93;;;10.30;;
7831;SDS011;3961;42.058;25.586;2024-03-08T09:47:36;16.27;;;9.40;;
7831;SDS011;3961;42.058;25.586;2024-03-08T09:50:05;14.67;;;9.60;;
7831;SDS011;3961;42.058;25.586;2024-03-08T09:52:35;13.03;;;9.53;;
7831;SDS011;3961;42.058;25.586;2024-03-08T09:55:03;15.57;;;9.93;;
7831;SDS011;3961;42.058;25.586;2024-03-08T09:57:31;14.50;;;10.60;;
7831;SDS011;3961;42.058;25.586;2024-03-08T09:59:58;13.47;;;9.73;;
7831;SDS011;3961;42.058;25.586;2024-03-08T10:02:24;18.00;;;10.30;;
7831;SDS011;3961;42.058;25.586;2024-03-08T10:04:50;13.93;;;10.33;;
7831;SDS011;3961;42.058;25.586;2024-03-08T10:07:18;14.73;;;9.93;;
7831;SDS011;3961;42.058;25.586;2024-03-08T10:09:44;14.00;;;10.07;;
7831;SDS011;3961;42.058;25.586;2024-03-08T10:12:15;14.63;;;10.53;;
7831;SDS011;3961;42.058;25.586;2024-03-08T10:14:42;16.13;;;9.40;;
7831;SDS011;3961;42.058;25.586;2024-03-08T10:17:08;18.23;;;10.17;;
7831;SDS011;3961;42.058;25.586;2024-03-08T10:19:33;14.73;;;9.70;;
7831;SDS011;3961;42.058;25.586;2024-03-08T10:21:59;13.07;;;9.60;;
7831;SDS011;3961;42.058;25.586;2024-03-08T10:24:25;14.40;;;9.60;;
7831;SDS011;3961;42.058;25.586;2024-03-08T10:26:53;17.63;;;9.87;;
7831;SDS011;3961;42.058;25.586;2024-03-08T10:29:30;14.37;;;9.53;;
7831;SDS011;3961;42.058;25.586;2024-03-08T10:31:56;14.20;;;9.73;;
7831;SDS011;3961;42.058;25.586;2024-03-08T10:34:22;12.50;;;9.30;;
7831;SDS011;3961;42.058;25.586;2024-03-08T10:36:49;13.80;;;9.50;;
7831;SDS011;3961;42.058;25.586;2024-03-08T10:39:23;13.27;;;9.23;;
7831;SDS011;3961;42.058;25.586;2024-03-08T10:41:55;13.37;;;9.27;;
7831;SDS011;3961;42.058;25.586;2024-03-08T10:49:30;18.27;;;9.37;;
7831;SDS011;3961;42.058;25.586;2024-03-08T10:52:04;10.70;;;8.60;;
7831;SDS011;3961;42.058;25.586;2024-03-08T10:54:33;11.20;;;7.87;;
7831;SDS011;3961;42.058;25.586;2024-03-08T10:57:03;13.50;;;9.37;;
7831;SDS011;3961;42.058;25.586;2024-03-08T10:59:31;17.73;;;9.93;;
7831;SDS011;3961;42.058;25.586;2024-03-08T11:01:59;12.43;;;8.73;;
7831;SDS011;3961;42.058;25.586;2024-03-08T11:04:25;13.67;;;9.60;;
7831;SDS011;3961;42.058;25.586;2024-03-08T11:06:50;14.50;;;9.03;;
7831;SDS011;3961;42.058;25.586;2024-03-08T11:09:37;11.87;;;7.97;;
7831;SDS011;3961;42.058;25.586;2024-03-08T11:12:22;14.10;;;9.03;;
7831;SDS011;3961;42.058;25.586;2024-03-08T11:14:54;11.63;;;8.67;;
7831;SDS011;3961;42.058;25.586;2024-03-08T11:19:55;11.57;;;8.10;;
7831;SDS011;3961;42.058;25.586;2024-03-08T11:22:22;12.33;;;8.23;;
7831;SDS011;3961;42.058;25.586;2024-03-08T11:24:53;12.30;;;8.57;;
7831;SDS011;3961;42.058;25.586;2024-03-08T11:27:28;9.87;;;7.83;;
7831;SDS011;3961;42.058;25.586;2024-03-08T11:30:03;11.23;;;7.60;;
7831;SDS011;3961;42.058;25.586;2024-03-08T11:32:35;9.13;;;7.10;;
7831;SDS011;3961;42.058;25.586;2024-03-08T11:35:03;9.93;;;6.97;;
7831;SDS011;3961;42.058;25.586;2024-03-08T11:37:33;10.97;;;7.60;;
7831;SDS011;3961;42.058;25.586;2024-03-08T11:39:59;11.17;;;8.27;;
7831;SDS011;3961;42.058;25.586;2024-03-08T11:42:26;12.97;;;8.17;;
7831;SDS011;3961;42.058;25.586;2024-03-08T11:44:52;19.23;;;8.27;;
7831;SDS011;3961;42.058;25.586;2024-03-08T11:47:18;9.73;;;7.87;;
7831;SDS011;3961;42.058;25.586;2024-03-08T11:49:44;11.27;;;8.37;;
7831;SDS011;3961;42.058;25.586;2024-03-08T11:52:16;118.80;;;75.30;;
7831;SDS011;3961;42.058;25.586;2024-03-08T11:54:47;12.40;;;9.23;;
7831;SDS011;3961;42.058;25.586;2024-03-08T11:57:19;8.40;;;6.80;;
7831;SDS011;3961;42.058;25.586;2024-03-08T11:59:53;9.77;;;7.13;;
7831;SDS011;3961;42.058;25.586;2024-03-08T12:02:22;8.90;;;6.90;;
7831;SDS011;3961;42.058;25.586;2024-03-08T12:04:55;10.80;;;8.00;;
7831;SDS011;3961;42.058;25.586;2024-03-08T12:07:35;9.33;;;7.57;;
7831;SDS011;3961;42.058;25.586;2024-03-08T12:10:14;12.97;;;7.60;;
7831;SDS011;3961;42.058;25.586;2024-03-08T12:12:44;12.17;;;6.80;;
7831;SDS011;3961;42.058;25.586;2024-03-08T12:15:11;13.70;;;7.73;;
7831;SDS011;3961;42.058;25.586;2024-03-08T12:17:37;9.63;;;7.30;;
7831;SDS011;3961;42.058;25.586;2024-03-08T12:20:37;10.40;;;7.40;;
7831;SDS011;3961;42.058;25.586;2024-03-08T12:22:56;9.77;;;7.37;;
7831;SDS011;3961;42.058;25.586;2024-03-08T12:25:22;12.23;;;6.90;;
7831;SDS011;3961;42.058;25.586;2024-03-08T12:27:51;8.83;;;6.90;;
7831;SDS011;3961;42.058;25.586;2024-03-08T12:30:19;10.00;;;7.13;;
7831;SDS011;3961;42.058;25.586;2024-03-08T12:32:59;9.83;;;7.00;;
7831;SDS011;3961;42.058;25.586;2024-03-08T12:35:28;6.53;;;5.87;;
7831;SDS011;3961;42.058;25.586;2024-03-08T12:37:56;8.63;;;6.53;;
7831;SDS011;3961;42.058;25.586;2024-03-08T12:40:29;7.47;;;5.93;;
7831;SDS011;3961;42.058;25.586;2024-03-08T12:43:05;9.10;;;6.63;;
7831;SDS011;3961;42.058;25.586;2024-03-08T12:45:31;11.50;;;6.70;;
7831;SDS011;3961;42.058;25.586;2024-03-08T12:47:57;10.47;;;6.60;;
7831;SDS011;3961;42.058;25.586;2024-03-08T12:50:24;8.17;;;6.03;;
7831;SDS011;3961;42.058;25.586;2024-03-08T12:52:50;6.97;;;5.40;;
7831;SDS011;3961;42.058;25.586;2024-03-08T12:55:17;9.93;;;6.97;;
7831;SDS011;3961;42.058;25.586;2024-03-08T12:57:44;7.57;;;5.93;;
7831;SDS011;3961;42.058;25.586;2024-03-08T13:00:10;11.20;;;6.63;;
7831;SDS011;3961;42.058;25.586;2024-03-08T13:02:44;9.73;;;6.80;;
7831;SDS011;3961;42.058;25.586;2024-03-08T13:05:12;10.23;;;6.80;;
7831;SDS011;3961;42.058;25.586;2024-03-08T13:07:39;8.60;;;5.40;;
7831;SDS011;3961;42.058;25.586;2024-03-08T13:10:06;10.10;;;6.53;;
7831;SDS011;3961;42.058;25.586;2024-03-08T13:12:32;7.70;;;5.87;;
7831;SDS011;3961;42.058;25.586;2024-03-08T13:14:58;8.70;;;5.73;;
7831;SDS011;3961;42.058;25.586;2024-03-08T13:17:23;8.13;;;6.07;;
7831;SDS011;3961;42.058;25.586;2024-03-08T13:19:49;7.63;;;5.80;;
7831;SDS011;3961;42.058;25.586;2024-03-08T13:22:14;8.17;;;5.93;;
7831;SDS011;3961;42.058;25.586;2024-03-08T13:24:42;10.67;;;6.40;;
7831;SDS011;3961;42.058;25.586;2024-03-08T13:27:08;13.63;;;7.33;;
7831;SDS011;3961;42.058;25.586;2024-03-08T13:29:47;7.27;;;5.40;;
7831;SDS011;3961;42.058;25.586;2024-03-08T13:32:14;8.63;;;6.50;;
7831;SDS011;3961;42.058;25.586;2024-03-08T13:34:41;7.13;;;6.33;;
7831;SDS011;3961;42.058;25.586;2024-03-08T13:37:07;9.07;;;5.50;;
7831;SDS011;3961;42.058;25.586;2024-03-08T13:39:35;8.57;;;5.70;;
7831;SDS011;3961;42.058;25.586;2024-03-08T13:42:06;7.70;;;5.40;;
7831;SDS011;3961;42.058;25.586;2024-03-08T13:44:35;6.73;;;5.43;;
7831;SDS011;3961;42.058;25.586;2024-03-08T13:47:01;6.17;;;4.90;;
7831;SDS011;3961;42.058;25.586;2024-03-08T13:49:29;7.97;;;4.90;;
7831;SDS011;3961;42.058;25.586;2024-03-08T13:51:55;10.50;;;4.80;;
7831;SDS011;3961;42.058;25.586;2024-03-08T13:54:23;7.63;;;4.80;;
7831;SDS011;3961;42.058;25.586;2024-03-08T13:56:49;5.73;;;5.00;;
7831;SDS011;3961;42.058;25.586;2024-03-08T13:59:15;8.43;;;5.77;;
7831;SDS011;3961;42.058;25.586;2024-03-08T14:01:40;10.03;;;4.83;;
7831;SDS011;3961;42.058;25.586;2024-03-08T14:04:05;5.33;;;4.57;;
7831;SDS011;3961;42.058;25.586;2024-03-08T14:06:33;4.50;;;3.83;;
7831;SDS011;3961;42.058;25.586;2024-03-08T14:08:59;44.17;;;32.10;;
7831;SDS011;3961;42.058;25.586;2024-03-08T14:11:24;9.47;;;6.57;;
7831;SDS011;3961;42.058;25.586;2024-03-08T14:13:50;3.97;;;3.57;;
7831;SDS011;3961;42.058;25.586;2024-03-08T14:16:15;5.37;;;3.77;;
7831;SDS011;3961;42.058;25.586;2024-03-08T14:18:42;9.80;;;4.33;;
7831;SDS011;3961;42.058;25.586;2024-03-08T14:21:07;4.07;;;3.67;;
7831;SDS011;3961;42.058;25.586;2024-03-08T14:23:35;5.37;;;3.80;;
7831;SDS011;3961;42.058;25.586;2024-03-08T14:26:01;5.27;;;3.93;;
7831;SDS011;3961;42.058;25.586;2024-03-08T14:28:28;7.80;;;4.33;;
7831;SDS011;3961;42.058;25.586;2024-03-08T14:30:53;5.73;;;4.10;;
7831;SDS011;3961;42.058;25.586;2024-03-08T14:33:19;6.00;;;3.93;;
7831;SDS011;3961;42.058;25.586;2024-03-08T14:35:44;10.33;;;4.60;;
7831;SDS011;3961;42.058;25.586;2024-03-08T14:38:12;4.87;;;3.90;;
7831;SDS011;3961;42.058;25.586;2024-03-08T14:40:38;4.33;;;3.93;;
7831;SDS011;3961;42.058;25.586;2024-03-08T14:43:04;5.10;;;4.13;;
7831;SDS011;3961;42.058;25.586;2024-03-08T14:45:30;4.73;;;4.23;;
7831;SDS011;3961;42.058;25.586;2024-03-08T14:47:56;4.87;;;3.70;;